Time;durP1;ratioP1;P1;durP2;ratioP2;P2;SDS_P1;SDS_P2;PMS_P1;PMS_P2;Temp;Humidity;BMP_temperature;BMP_pressure;BME280_temperature;BME280_humidity;BME280_pressure;Samples;Min_cycle;Max_cycle;Signal;HPM_P1;HPM_P2
2022/01/01 00:02:24;;;;;;;9.98;4.95;;;27.70;84.30;;;;;;5052600;28;20055;-53
2022/01/01 00:04:51;;;;;;;7.28;4.93;;;27.60;84.10;;;;;;5054444;28;20044;-49
2022/01/01 00:07:17;;;;;;;9.95;5.45;;;27.60;84.00;;;;;;5052394;28;20025;-48
2022/01/01 00:09:44;;;;;;;6.93;4.93;;;27.70;83.90;;;;;;5053880;28;20206;-48
2022/01/01 00:12:12;;;;;;;11.52;4.90;;;27.70;83.90;;;;;;5056119;28;20329;-52
2022/01/01 00:14:39;;;;;;;12.18;5.05;;;27.60;83.70;;;;;;5055336;28;20048;-49
2022/01/01 00:17:07;;;;;;;8.90;4.30;;;27.60;83.60;;;;;;5053021;28;20029;-47
2022/01/01 00:19:34;;;;;;;7.15;4.30;;;27.60;83.60;;;;;;5054721;28;20032;-44
2022/01/01 00:22:02;;;;;;;11.13;3.92;;;27.60;83.40;;;;;;5051831;28;20017;-45
2022/01/01 00:24:29;;;;;;;12.20;4.25;;;27.60;83.30;;;;;;5043379;28;20028;-42
2022/01/01 00:26:55;;;;;;;10.40;4.55;;;27.60;83.30;;;;;;5048438;28;20089;-44
2022/01/01 00:29:22;;;;;;;6.93;3.83;;;27.60;83.10;;;;;;5062469;28;20023;-43
2022/01/01 00:31:51;;;;;;;6.72;4.25;;;27.50;82.90;;;;;;5063378;28;20079;-48
2022/01/01 00:34:17;;;;;;;12.98;4.35;;;27.60;82.90;;;;;;5059962;28;20131;-51
2022/01/01 00:36:44;;;;;;;6.65;3.85;;;27.50;82.80;;;;;;5052556;28;20036;-45
2022/01/01 00:39:11;;;;;;;8.98;4.72;;;27.60;83.50;;;;;;5043903;28;20033;-54
2022/01/01 00:41:37;;;;;;;10.57;4.30;;;27.60;82.80;;;;;;5051607;28;20032;-46
2022/01/01 00:44:04;;;;;;;9.93;4.68;;;27.60;82.80;;;;;;5053590;28;20033;-49
2022/01/01 00:46:31;;;;;;;10.43;4.32;;;27.60;82.70;;;;;;5052039;28;20081;-48
2022/01/01 00:48:58;;;;;;;8.32;4.90;;;27.50;82.30;;;;;;5055122;28;20016;-44
2022/01/01 00:51:24;;;;;;;7.78;4.40;;;27.60;82.30;;;;;;5058082;28;20123;-46
2022/01/01 00:53:51;;;;;;;11.32;4.57;;;27.60;82.10;;;;;;5054139;28;20025;-49
2022/01/01 00:56:18;;;;;;;7.13;4.32;;;27.50;82.00;;;;;;5053344;28;20025;-45
2022/01/01 00:58:44;;;;;;;7.65;4.40;;;27.60;81.90;;;;;;5049662;28;20075;-45
2022/01/01 01:01:11;;;;;;;9.45;4.72;;;27.50;81.80;;;;;;5051437;28;20246;-42
2022/01/01 01:03:37;;;;;;;16.17;4.55;;;27.60;81.60;;;;;;5053923;28;20104;-51
2022/01/01 01:06:04;;;;;;;57.72;8.35;;;27.60;81.50;;;;;;5051703;28;20041;-44
2022/01/01 01:08:31;;;;;;;32.72;5.78;;;27.50;81.20;;;;;;5052383;28;20028;-46
2022/01/01 01:10:59;;;;;;;35.38;6.57;;;27.50;80.90;;;;;;5053300;28;20027;-56
2022/01/01 01:13:29;;;;;;;29.02;4.70;;;27.50;80.80;;;;;;5059516;28;20368;-55
2022/01/01 01:15:55;;;;;;;18.30;4.88;;;27.50;80.70;;;;;;5058975;28;20025;-41
2022/01/01 01:18:22;;;;;;;12.30;4.65;;;27.50;80.60;;;;;;5059364;28;20206;-56
2022/01/01 01:20:49;;;;;;;14.38;5.10;;;27.50;80.10;;;;;;5059491;28;20371;-46
2022/01/01 01:23:15;;;;;;;15.95;4.35;;;27.50;80.20;;;;;;5061802;28;20028;-49
2022/01/01 01:25:42;;;;;;;12.75;4.57;;;27.50;80.20;;;;;;5060311;28;20037;-50
2022/01/01 01:28:10;;;;;;;17.67;4.68;;;27.50;80.00;;;;;;5061957;28;20037;-49
2022/01/01 01:30:38;;;;;;;15.90;4.78;;;27.50;80.40;;;;;;5059327;28;20048;-46
2022/01/01 01:33:06;;;;;;;14.50;4.03;;;27.50;79.90;;;;;;5060686;28;20329;-47
2022/01/01 01:35:33;;;;;;;9.40;4.28;;;27.40;79.70;;;;;;5063165;28;20037;-43
2022/01/01 01:38:00;;;;;;;9.85;4.60;;;27.50;79.60;;;;;;5058233;28;20029;-47
2022/01/01 01:40:27;;;;;;;9.38;4.40;;;27.40;79.40;;;;;;5066691;28;20048;-52
2022/01/01 01:42:53;;;;;;;7.10;4.07;;;27.40;79.30;;;;;;5060905;28;20197;-45
2022/01/01 01:45:22;;;;;;;10.73;3.80;;;27.40;79.30;;;;;;5063406;28;20383;-46
2022/01/01 01:47:49;;;;;;;7.63;3.63;;;27.40;79.30;;;;;;5055759;28;20028;-49
2022/01/01 01:50:18;;;;;;;8.05;3.63;;;27.40;79.20;;;;;;5055634;28;20024;-49
2022/01/01 01:52:51;;;;;;;7.80;4.05;;;27.40;79.20;;;;;;5057390;28;20009;-48
2022/01/01 01:55:18;;;;;;;7.38;4.25;;;27.30;79.00;;;;;;5057462;28;20034;-54
2022/01/01 01:57:45;;;;;;;13.02;4.68;;;27.30;79.00;;;;;;5058128;28;20072;-44
2022/01/01 02:03:01;;;;;;;8.32;4.90;;;27.30;79.00;;;;;;5062413;28;20032;-53
2022/01/01 02:05:28;;;;;;;7.78;5.20;;;27.30;78.90;;;;;;5065227;28;20029;-45
2022/01/01 02:07:57;;;;;;;8.07;5.32;;;27.30;78.80;;;;;;5062170;28;20075;-50
2022/01/01 02:10:24;;;;;;;10.93;4.88;;;27.30;79.20;;;;;;5046328;28;20401;-50
2022/01/01 02:12:54;;;;;;;8.32;4.40;;;27.30;78.60;;;;;;5046243;28;20055;-55
2022/01/01 02:16:50;;;;;;;11.13;4.68;;;27.30;78.60;;;;;;5046191;28;20036;-45
2022/01/01 02:18:29;;;;;;;8.70;4.40;;;27.30;78.50;;;;;;5054514;28;20033;-47
2022/01/01 02:20:59;;;;;;;8.43;4.43;;;27.20;78.40;;;;;;5059976;28;20021;-47
2022/01/01 02:23:27;;;;;;;9.23;4.00;;;27.20;78.30;;;;;;5046032;28;20025;-44
2022/01/01 02:25:58;;;;;;;6.85;4.00;;;27.20;78.30;;;;;;5045994;28;20025;-52
2022/01/01 02:28:25;;;;;;;9.93;4.00;;;27.20;78.20;;;;;;5046148;28;20048;-45
2022/01/01 02:30:52;;;;;;;10.90;3.30;;;27.20;78.30;;;;;;5045701;28;20053;-53
2022/01/01 02:33:19;;;;;;;9.60;3.63;;;27.20;78.10;;;;;;5045865;28;20025;-43
2022/01/01 02:35:46;;;;;;;8.82;3.17;;;27.20;78.10;;;;;;5046798;28;20210;-48
2022/01/01 02:38:12;;;;;;;11.65;2.90;;;27.20;78.10;;;;;;5062545;28;20024;-45
2022/01/01 02:40:39;;;;;;;6.13;2.95;;;27.20;77.50;;;;;;5065748;28;20092;-49
2022/01/01 02:43:06;;;;;;;8.02;2.72;;;27.10;77.10;;;;;;5065746;28;20080;-48
2022/01/01 02:45:32;;;;;;;8.35;2.60;;;27.10;76.90;;;;;;5065116;28;20036;-51
2022/01/01 02:47:59;;;;;;;9.18;3.00;;;27.00;77.00;;;;;;5064718;28;20043;-45
2022/01/01 02:50:25;;;;;;;12.60;3.08;;;26.90;77.10;;;;;;5061568;28;20096;-43
2022/01/01 02:52:52;;;;;;;3.63;2.63;;;26.90;77.10;;;;;;5053842;28;20041;-49
2022/01/01 02:55:19;;;;;;;10.25;2.88;;;26.90;77.30;;;;;;5045588;28;20033;-45
2022/01/01 02:57:45;;;;;;;10.25;2.67;;;26.90;77.30;;;;;;5045521;28;20021;-52
2022/01/01 03:00:12;;;;;;;8.52;2.83;;;26.90;77.20;;;;;;5045934;28;20051;-50
2022/01/01 03:02:39;;;;;;;9.77;2.78;;;26.80;77.30;;;;;;5055949;28;20096;-53
2022/01/01 03:05:07;;;;;;;5.47;2.75;;;26.80;77.20;;;;;;5052058;28;20029;-44
2022/01/01 03:07:38;;;;;;;6.60;2.50;;;26.80;77.30;;;;;;5045388;28;20014;-50
2022/01/01 03:10:05;;;;;;;7.93;2.50;;;26.80;77.50;;;;;;5064583;28;20029;-45
2022/01/01 03:12:32;;;;;;;9.70;3.00;;;26.80;77.70;;;;;;5057045;28;20017;-50
2022/01/01 03:14:58;;;;;;;6.10;2.83;;;26.80;78.10;;;;;;5045436;28;20364;-48
2022/01/01 03:17:25;;;;;;;9.35;3.67;;;26.70;77.80;;;;;;5053678;28;20262;-44
2022/01/01 03:19:52;;;;;;;6.00;3.85;;;26.70;77.70;;;;;;5045551;28;20030;-44
2022/01/01 03:22:18;;;;;;;6.57;3.55;;;26.70;77.70;;;;;;5055406;28;20216;-49
2022/01/01 03:24:45;;;;;;;14.23;3.75;;;26.70;77.60;;;;;;5059076;28;20033;-49
2022/01/01 03:27:11;;;;;;;6.65;2.85;;;26.60;77.90;;;;;;5048216;28;20041;-46
2022/01/01 03:29:38;;;;;;;7.38;2.97;;;26.60;77.90;;;;;;5045297;28;20029;-48
2022/01/01 03:32:07;;;;;;;8.95;2.88;;;26.60;78.10;;;;;;5044333;28;20049;-46
2022/01/01 03:34:33;;;;;;;5.88;3.35;;;26.60;78.40;;;;;;5045238;28;20025;-43
2022/01/01 03:37:00;;;;;;;8.40;3.67;;;26.60;78.10;;;;;;5051630;28;20028;-52
2022/01/01 03:39:27;;;;;;;8.15;3.10;;;26.60;78.00;;;;;;5064934;28;20049;-42
2022/01/01 03:41:54;;;;;;;6.60;2.83;;;26.60;78.00;;;;;;5064932;28;20360;-53
2022/01/01 03:44:20;;;;;;;7.75;2.42;;;26.50;78.10;;;;;;5064851;28;20302;-53
2022/01/01 03:46:47;;;;;;;10.80;4.18;;;26.50;78.10;;;;;;5064084;28;20084;-56
2022/01/01 03:49:14;;;;;;;13.57;7.60;;;26.50;78.00;;;;;;5056209;28;20033;-46
2022/01/01 03:51:41;;;;;;;12.13;7.93;;;26.50;78.00;;;;;;5044440;28;20021;-43
2022/01/01 03:54:08;;;;;;;12.07;7.22;;;26.50;77.90;;;;;;5058916;28;20032;-45
2022/01/01 03:56:37;;;;;;;8.40;4.82;;;26.50;77.90;;;;;;5064389;28;20084;-49
2022/01/01 03:59:04;;;;;;;11.52;5.28;;;26.50;77.90;;;;;;5063031;28;20182;-56
2022/01/01 04:01:30;;;;;;;12.32;5.95;;;26.50;78.20;;;;;;5054960;28;20025;-60
2022/01/01 04:03:57;;;;;;;18.80;7.38;;;26.50;78.10;;;;;;5044525;28;20017;-50
2022/01/01 04:06:24;;;;;;;11.50;6.78;;;26.50;78.10;;;;;;5044070;28;20025;-51
2022/01/01 04:08:50;;;;;;;10.63;6.20;;;26.50;78.10;;;;;;5044248;28;20025;-50
2022/01/01 04:11:17;;;;;;;13.23;6.82;;;26.50;78.30;;;;;;5044086;28;20032;-50
2022/01/01 04:13:43;;;;;;;10.63;6.88;;;26.50;78.10;;;;;;5044003;28;20063;-45
2022/01/01 04:16:11;;;;;;;10.00;5.22;;;26.50;78.00;;;;;;5043485;28;20021;-49
2022/01/01 04:18:38;;;;;;;10.77;4.03;;;26.50;78.10;;;;;;5043870;28;20021;-48
2022/01/01 04:21:09;;;;;;;12.05;4.45;;;26.50;78.10;;;;;;5052572;28;20027;-52
2022/01/01 04:23:37;;;;;;;22.45;4.82;;;26.50;78.20;;;;;;5045541;28;20033;-45
2022/01/01 04:26:05;;;;;;;11.73;4.88;;;26.50;78.20;;;;;;5042428;28;20017;-50
2022/01/01 04:28:32;;;;;;;12.98;4.68;;;26.50;78.50;;;;;;5043086;28;20313;-49
2022/01/01 04:30:58;;;;;;;11.30;7.28;;;26.60;78.50;;;;;;5041913;28;20552;-55
2022/01/01 04:33:25;;;;;;;14.73;7.78;;;26.60;78.30;;;;;;5042530;28;20032;-51
2022/01/01 04:35:51;;;;;;;15.65;6.90;;;26.60;78.40;;;;;;5042912;28;20022;-45
2022/01/01 04:38:39;;;;;;;18.15;8.38;;;26.60;78.40;;;;;;5043512;28;20028;-46
2022/01/01 04:41:07;;;;;;;16.17;7.40;;;26.60;78.50;;;;;;5042940;28;20059;-44
2022/01/01 04:43:33;;;;;;;15.82;7.50;;;26.60;78.70;;;;;;5043127;28;20036;-43
2022/01/01 04:46:00;;;;;;;14.07;8.18;;;26.60;78.60;;;;;;5043559;28;20030;-57
2022/01/01 04:48:26;;;;;;;13.52;8.65;;;26.60;78.60;;;;;;5043588;28;20033;-46
2022/01/01 04:50:53;;;;;;;15.30;7.95;;;26.60;78.50;;;;;;5043324;28;20024;-48
2022/01/01 04:53:20;;;;;;;11.02;7.75;;;26.60;78.70;;;;;;5043515;28;20022;-48
2022/01/01 04:55:47;;;;;;;18.02;7.57;;;26.60;78.60;;;;;;5043435;28;20033;-43
2022/01/01 04:58:15;;;;;;;17.73;9.60;;;26.60;78.70;;;;;;5043259;28;20325;-42
2022/01/01 05:00:42;;;;;;;10.63;6.75;;;26.60;78.60;;;;;;5043561;28;20029;-48
2022/01/01 05:03:08;;;;;;;19.90;8.38;;;26.60;78.60;;;;;;5043468;28;20330;-46
2022/01/01 05:05:35;;;;;;;22.00;9.77;;;26.60;78.60;;;;;;5043151;28;20028;-53
2022/01/01 05:08:01;;;;;;;20.55;12.60;;;26.60;78.60;;;;;;5043358;28;20069;-50
2022/01/01 05:10:28;;;;;;;26.00;11.63;;;26.60;78.70;;;;;;5046078;28;20060;-50
2022/01/01 05:12:54;;;;;;;26.35;10.20;;;26.60;78.70;;;;;;5047099;28;20108;-48
2022/01/01 05:15:21;;;;;;;25.55;10.57;;;26.60;78.60;;;;;;5047169;28;20021;-46
2022/01/01 05:17:47;;;;;;;21.17;11.85;;;26.60;78.70;;;;;;5047064;28;20143;-50
2022/01/01 05:20:14;;;;;;;21.05;10.77;;;26.60;78.60;;;;;;5046948;28;20040;-51
2022/01/01 05:22:41;;;;;;;20.95;9.75;;;26.60;78.60;;;;;;5047077;28;20066;-52
2022/01/01 05:25:08;;;;;;;16.58;9.65;;;26.60;78.60;;;;;;5047573;28;20057;-52
2022/01/01 05:27:36;;;;;;;16.42;9.35;;;26.60;78.60;;;;;;5047027;28;20018;-49
2022/01/01 05:30:05;;;;;;;17.55;9.27;;;26.60;78.70;;;;;;5047343;28;20022;-54
2022/01/01 05:32:32;;;;;;;24.00;14.88;;;26.60;78.70;;;;;;5029479;28;20037;-48
2022/01/01 05:34:59;;;;;;;24.60;12.93;;;26.60;78.90;;;;;;5028978;28;20230;-50
2022/01/01 05:37:25;;;;;;;21.95;11.40;;;26.60;79.00;;;;;;5046963;28;20009;-48
2022/01/01 05:39:52;;;;;;;26.73;10.73;;;26.60;79.00;;;;;;5047184;28;20040;-47
2022/01/01 05:42:18;;;;;;;20.15;10.45;;;26.60;79.20;;;;;;5046781;28;20313;-49
2022/01/01 05:44:45;;;;;;;16.92;9.60;;;26.60;79.20;;;;;;5047013;28;20033;-46
2022/01/01 05:47:11;;;;;;;19.73;9.73;;;26.60;79.30;;;;;;5046676;28;20021;-49
2022/01/01 05:49:38;;;;;;;19.15;10.30;;;26.60;79.40;;;;;;5046965;28;20028;-50
2022/01/01 05:52:05;;;;;;;46.10;18.73;;;26.60;79.50;;;;;;5046525;28;20025;-44
2022/01/01 05:54:31;;;;;;;65.95;29.15;;;26.60;79.40;;;;;;5046900;28;20025;-47
2022/01/01 05:56:59;;;;;;;117.25;47.35;;;26.50;79.40;;;;;;5046546;28;20067;-46
2022/01/01 05:59:26;;;;;;;67.53;29.60;;;26.60;79.50;;;;;;5046574;28;20029;-49
2022/01/01 06:01:52;;;;;;;83.32;35.20;;;26.50;79.60;;;;;;5046459;28;20401;-48
2022/01/01 06:04:20;;;;;;;88.20;38.97;;;26.50;79.70;;;;;;5046767;28;20025;-44
2022/01/01 06:06:47;;;;;;;68.47;29.23;;;26.50;79.90;;;;;;5046003;28;20033;-49
2022/01/01 06:09:13;;;;;;;65.32;27.90;;;26.50;80.00;;;;;;5046432;28;20380;-46
2022/01/01 06:11:40;;;;;;;83.55;36.00;;;26.50;80.10;;;;;;5046331;28;20025;-51
2022/01/01 06:14:06;;;;;;;55.20;27.60;;;26.50;79.80;;;;;;5046336;28;20021;-51
2022/01/01 06:16:33;;;;;;;49.67;22.63;;;26.50;79.80;;;;;;5046119;28;20025;-47
2022/01/01 06:18:59;;;;;;;66.35;40.95;;;26.50;80.00;;;;;;5046341;28;20025;-52
2022/01/01 06:21:26;;;;;;;47.22;25.17;;;26.50;80.60;;;;;;5044896;28;20025;-43
2022/01/01 06:23:53;;;;;;;37.75;16.88;;;26.50;80.10;;;;;;5046276;28;20028;-47
2022/01/01 06:26:19;;;;;;;28.67;13.68;;;26.50;80.10;;;;;;5045998;28;20045;-46
2022/01/01 06:28:46;;;;;;;22.13;8.93;;;26.50;80.20;;;;;;5045885;28;20013;-48
2022/01/01 06:31:12;;;;;;;26.63;17.98;;;26.50;80.30;;;;;;5045804;28;20041;-49
2022/01/01 06:33:39;;;;;;;23.70;11.95;;;26.50;80.40;;;;;;5046063;28;20049;-52
2022/01/01 06:36:12;;;;;;;18.75;10.75;;;26.50;80.40;;;;;;5045705;28;20056;-48
2022/01/01 06:38:41;;;;;;;21.25;9.77;;;26.50;80.50;;;;;;5045883;28;20030;-50
2022/01/01 06:41:08;;;;;;;21.42;7.38;;;26.50;80.70;;;;;;5045693;28;20291;-50
2022/01/01 06:43:34;;;;;;;15.48;6.65;;;26.50;80.60;;;;;;5045706;28;20301;-49
2022/01/01 06:46:01;;;;;;;16.20;5.32;;;26.50;80.70;;;;;;5045534;28;20101;-48
2022/01/01 06:48:28;;;;;;;14.07;4.93;;;26.50;80.90;;;;;;5045912;28;20257;-49
2022/01/01 06:50:54;;;;;;;13.52;5.30;;;26.40;80.90;;;;;;5045479;28;20033;-48
2022/01/01 06:53:21;;;;;;;13.90;4.22;;;26.50;81.10;;;;;;5045688;28;20048;-47
2022/01/01 06:55:48;;;;;;;11.77;3.78;;;26.50;81.30;;;;;;5045493;28;20029;-53
2022/01/01 06:58:15;;;;;;;9.23;3.60;;;26.40;81.40;;;;;;5045297;28;20028;-47
2022/01/01 07:00:41;;;;;;;8.20;3.80;;;26.40;81.60;;;;;;5045417;28;20028;-43
2022/01/01 07:03:08;;;;;;;10.85;3.63;;;26.50;81.80;;;;;;5045319;28;20017;-44
2022/01/01 07:05:35;;;;;;;5.05;3.20;;;26.40;81.90;;;;;;5045071;28;20030;-49
2022/01/01 07:08:02;;;;;;;9.98;3.75;;;26.40;82.10;;;;;;5045417;28;20302;-46
2022/01/01 07:10:28;;;;;;;11.60;3.72;;;26.40;82.20;;;;;;5045194;28;20033;-49
2022/01/01 07:12:55;;;;;;;7.07;3.80;;;26.40;82.30;;;;;;5044916;28;20024;-48
2022/01/01 07:15:22;;;;;;;6.57;3.80;;;26.40;82.50;;;;;;5045033;28;20030;-45
2022/01/01 07:17:48;;;;;;;12.82;4.20;;;26.40;82.50;;;;;;5045051;28;20021;-49
2022/01/01 07:20:15;;;;;;;10.15;5.05;;;26.40;82.40;;;;;;5045430;28;20202;-47
2022/01/01 07:22:43;;;;;;;17.40;7.38;;;26.40;82.40;;;;;;5045082;28;20269;-50
2022/01/01 07:25:11;;;;;;;29.58;11.45;;;26.40;82.60;;;;;;5045354;28;20088;-48
2022/01/01 07:27:39;;;;;;;29.75;13.40;;;26.40;82.60;;;;;;5044753;28;20044;-48
2022/01/01 07:30:07;;;;;;;22.25;11.07;;;26.40;82.60;;;;;;5045315;28;20026;-44
2022/01/01 07:32:41;;;;;;;21.85;11.48;;;26.40;82.70;;;;;;5044568;28;20104;-43
2022/01/01 07:35:10;;;;;;;26.15;10.18;;;26.40;82.70;;;;;;5045097;28;20056;-51
2022/01/01 07:37:36;;;;;;;20.75;9.10;;;26.40;82.60;;;;;;5044915;28;20210;-47
2022/01/01 07:40:05;;;;;;;18.50;8.40;;;26.40;82.60;;;;;;5045221;28;20025;-43
2022/01/01 07:42:32;;;;;;;20.00;9.98;;;26.40;82.40;;;;;;5044481;28;20314;-47
2022/01/01 07:44:59;;;;;;;20.33;10.52;;;26.40;82.40;;;;;;5045016;28;20031;-49
2022/01/01 07:47:26;;;;;;;19.10;8.70;;;26.40;82.30;;;;;;5044701;28;20021;-51
2022/01/01 07:49:53;;;;;;;15.07;7.85;;;26.40;82.30;;;;;;5044313;28;20025;-47
2022/01/01 07:52:20;;;;;;;12.98;7.78;;;26.40;82.30;;;;;;5044456;28;20077;-43
2022/01/01 07:54:46;;;;;;;16.17;7.55;;;26.30;82.20;;;;;;5044838;28;20021;-53
2022/01/01 07:57:13;;;;;;;11.70;6.43;;;26.30;82.20;;;;;;5044197;28;20340;-47
2022/01/01 07:59:39;;;;;;;12.55;6.43;;;26.40;82.30;;;;;;5044815;28;20032;-46
2022/01/01 08:02:06;;;;;;;16.17;5.78;;;26.40;82.80;;;;;;5044283;28;20084;-44
2022/01/01 08:04:33;;;;;;;11.88;5.88;;;26.30;82.20;;;;;;5044465;28;20009;-49
2022/01/01 08:07:01;;;;;;;9.23;4.95;;;26.30;82.20;;;;;;5044173;28;20026;-46
2022/01/01 08:09:28;;;;;;;9.98;4.95;;;26.30;82.20;;;;;;5044642;28;20017;-47
2022/01/01 08:11:55;;;;;;;8.07;4.68;;;26.40;82.30;;;;;;5043930;28;20087;-50
2022/01/01 08:14:23;;;;;;;9.40;4.78;;;26.30;82.10;;;;;;5026589;28;20256;-48
2022/01/01 08:17:00;;;;;;;12.20;5.22;;;26.30;82.10;;;;;;5043997;28;20059;-48
2022/01/01 08:19:27;;;;;;;7.22;4.25;;;26.30;82.00;;;;;;5044242;28;20028;-45
2022/01/01 08:21:54;;;;;;;7.30;4.22;;;26.30;81.90;;;;;;5044054;28;20037;-49
2022/01/01 08:24:22;;;;;;;10.20;5.50;;;26.30;81.90;;;;;;5044241;28;20100;-50
2022/01/01 08:26:49;;;;;;;13.95;4.70;;;26.30;81.90;;;;;;5043788;28;20238;-44
2022/01/01 08:29:16;;;;;;;10.93;4.10;;;26.30;81.90;;;;;;5044148;28;20028;-48
2022/01/01 08:31:43;;;;;;;10.65;3.67;;;26.30;81.90;;;;;;5043737;28;20049;-47
2022/01/01 08:34:10;;;;;;;6.75;3.90;;;26.30;81.80;;;;;;5043708;28;20017;-48
2022/01/01 08:36:37;;;;;;;14.10;4.00;;;26.30;81.90;;;;;;5043835;28;20026;-47
2022/01/01 08:39:06;;;;;;;7.60;3.35;;;26.30;81.80;;;;;;5044062;28;20025;-55
2022/01/01 08:41:33;;;;;;;7.03;3.28;;;26.30;81.80;;;;;;5044072;28;20029;-51
2022/01/01 08:44:00;;;;;;;8.70;3.15;;;26.30;81.90;;;;;;5043437;28;20017;-54
2022/01/01 08:46:26;;;;;;;6.35;3.10;;;26.30;81.90;;;;;;5043664;28;20025;-46
2022/01/01 08:48:53;;;;;;;12.02;3.13;;;26.30;81.90;;;;;;5043799;28;20368;-48
2022/01/01 08:51:22;;;;;;;5.97;2.97;;;26.30;82.00;;;;;;5043815;28;20088;-46
2022/01/01 08:53:49;;;;;;;10.27;3.55;;;26.30;82.00;;;;;;5043867;28;20022;-48
2022/01/01 08:56:16;;;;;;;7.75;3.15;;;26.20;81.90;;;;;;5043526;28;20120;-51
2022/01/01 08:58:49;;;;;;;6.65;3.25;;;26.20;81.90;;;;;;5044504;28;20021;-50
2022/01/01 09:01:24;;;;;;;6.80;3.22;;;26.30;82.00;;;;;;5044456;28;20092;-52
2022/01/01 09:03:51;;;;;;;7.35;3.65;;;26.20;82.40;;;;;;5043756;28;20036;-51
2022/01/01 09:06:17;;;;;;;10.07;3.60;;;26.20;81.90;;;;;;5043752;28;20079;-48
2022/01/01 09:08:44;;;;;;;6.18;4.00;;;26.20;81.90;;;;;;5043341;28;20032;-44
2022/01/01 09:11:12;;;;;;;9.65;4.13;;;26.20;81.80;;;;;;5043728;28;20088;-43
2022/01/01 09:13:42;;;;;;;8.45;4.20;;;26.20;81.80;;;;;;5043458;28;20093;-51
2022/01/01 09:16:14;;;;;;;7.53;3.53;;;26.20;82.30;;;;;;5044056;28;20033;-45
2022/01/01 09:18:45;;;;;;;7.68;3.70;;;26.20;81.80;;;;;;5045179;28;20025;-47
2022/01/01 09:21:13;;;;;;;5.72;3.22;;;26.20;81.80;;;;;;5044673;28;20025;-55
2022/01/01 09:23:43;;;;;;;9.23;3.38;;;26.20;81.80;;;;;;5045424;28;20025;-51
2022/01/01 09:26:21;;;;;;;9.65;3.20;;;26.20;81.80;;;;;;5044829;28;20067;-52
2022/01/01 09:28:50;;;;;;;7.50;3.38;;;26.20;81.80;;;;;;5044396;28;20333;-52
2022/01/01 09:31:20;;;;;;;6.72;2.85;;;26.20;81.80;;;;;;5044545;28;20243;-50
2022/01/01 09:33:52;;;;;;;6.05;3.33;;;26.20;81.80;;;;;;5043954;28;20078;-48
2022/01/01 09:36:20;;;;;;;7.25;3.40;;;26.20;81.70;;;;;;5043558;28;20037;-48
2022/01/01 09:38:47;;;;;;;6.45;3.22;;;26.20;81.70;;;;;;5043379;28;20029;-46
2022/01/01 09:41:15;;;;;;;8.70;3.42;;;26.20;81.70;;;;;;5043283;28;20025;-49
2022/01/01 09:43:45;;;;;;;5.60;3.00;;;26.20;81.70;;;;;;5043359;28;20033;-49
2022/01/01 09:46:14;;;;;;;5.47;3.53;;;26.20;81.60;;;;;;5043117;28;20029;-47
2022/01/01 09:48:41;;;;;;;8.48;2.90;;;26.20;81.60;;;;;;5043223;28;20029;-46
2022/01/01 09:51:09;;;;;;;7.78;2.95;;;26.20;81.60;;;;;;5043124;28;20013;-45
2022/01/01 09:53:36;;;;;;;7.43;3.13;;;26.20;81.60;;;;;;5043291;28;20040;-50
2022/01/01 09:56:05;;;;;;;8.25;3.10;;;26.20;82.10;;;;;;5043211;28;20265;-46
2022/01/01 09:58:37;;;;;;;5.80;3.60;;;26.20;81.60;;;;;;5046666;28;20029;-41
2022/01/01 10:01:06;;;;;;;8.25;4.60;;;26.20;81.60;;;;;;5046497;28;20028;-45
2022/01/01 10:03:41;;;;;;;9.98;5.85;;;26.20;81.60;;;;;;5046453;28;20034;-45
2022/01/01 10:06:12;;;;;;;13.60;7.50;;;26.20;81.80;;;;;;5046353;28;20029;-44
2022/01/01 10:08:41;;;;;;;15.40;8.15;;;26.20;81.80;;;;;;5046404;28;20047;-48
2022/01/01 10:11:09;;;;;;;11.38;7.55;;;26.20;82.00;;;;;;5046357;28;20017;-48
2022/01/01 10:13:38;;;;;;;12.75;8.23;;;26.20;82.20;;;;;;5046452;28;20095;-45
2022/01/01 10:16:10;;;;;;;12.85;8.80;;;26.20;82.30;;;;;;5045991;28;20055;-49
2022/01/01 10:18:38;;;;;;;15.70;8.38;;;26.20;82.40;;;;;;5046236;28;20040;-48
2022/01/01 10:21:17;;;;;;;12.10;7.25;;;26.20;82.40;;;;;;5046249;28;20025;-48
2022/01/01 10:23:52;;;;;;;14.38;6.75;;;26.20;82.40;;;;;;5046348;28;20025;-49
2022/01/01 10:29:18;;;;;;;24.17;14.45;;;26.20;82.30;;;;;;5046375;28;20016;-43
2022/01/01 10:32:01;;;;;;;25.13;15.55;;;26.20;82.30;;;;;;5045752;28;20269;-45
2022/01/01 10:34:32;;;;;;;27.05;15.63;;;26.10;82.30;;;;;;5046257;28;20255;-51
2022/01/01 10:36:58;;;;;;;29.08;14.93;;;26.20;82.40;;;;;;5045997;28;20039;-49
2022/01/01 10:39:26;;;;;;;20.80;13.93;;;26.20;82.50;;;;;;5046166;28;20025;-47
2022/01/01 10:42:03;;;;;;;24.95;13.75;;;26.20;82.70;;;;;;5045815;28;20034;-49
2022/01/01 10:44:36;;;;;;;22.05;13.57;;;26.20;82.80;;;;;;5045930;28;20022;-45
2022/01/01 10:47:26;;;;;;;35.22;19.98;;;26.20;82.90;;;;;;5045698;28;20075;-45
2022/01/01 10:50:37;;;;;;;33.83;22.48;;;26.10;82.90;;;;;;5045839;28;20025;-44
2022/01/01 10:52:45;;;;;;;37.40;26.15;;;26.10;83.00;;;;;;5038604;28;20096;-45
2022/01/01 10:55:12;;;;;;;46.63;31.25;;;26.20;83.20;;;;;;5045893;28;20033;-43
2022/01/01 10:57:41;;;;;;;50.25;31.58;;;26.10;83.20;;;;;;5045541;28;20337;-47
2022/01/01 11:00:09;;;;;;;45.55;32.10;;;26.10;83.30;;;;;;5045858;28;20032;-47
2022/01/01 11:02:38;;;;;;;50.03;33.08;;;26.10;83.40;;;;;;5045459;28;20088;-46
2022/01/01 11:05:06;;;;;;;58.17;35.00;;;26.10;83.50;;;;;;5045165;28;20097;-47
2022/01/01 11:07:33;;;;;;;50.53;32.40;;;26.10;83.40;;;;;;5044803;28;20076;-51
2022/01/01 11:10:00;;;;;;;49.80;32.10;;;26.10;83.50;;;;;;5045694;28;20037;-48
2022/01/01 11:12:29;;;;;;;42.35;26.58;;;26.10;83.50;;;;;;5045235;28;20017;-48
2022/01/01 11:15:02;;;;;;;34.83;23.55;;;26.10;83.60;;;;;;5045468;28;20025;-45
2022/01/01 11:17:30;;;;;;;28.00;19.23;;;26.10;83.60;;;;;;5045050;28;20081;-49
2022/01/01 11:19:58;;;;;;;29.42;15.82;;;26.10;83.60;;;;;;5045533;28;20021;-46
2022/01/01 11:22:27;;;;;;;23.02;13.68;;;26.10;83.60;;;;;;5044919;28;20024;-49
2022/01/01 11:24:55;;;;;;;21.15;12.65;;;26.10;83.80;;;;;;5045252;28;20297;-42
2022/01/01 11:27:25;;;;;;;15.82;9.82;;;26.10;83.80;;;;;;5044911;28;20218;-43
2022/01/01 11:29:53;;;;;;;15.57;9.13;;;26.10;83.90;;;;;;5045176;28;20210;-44
2022/01/01 11:32:50;;;;;;;16.73;8.82;;;26.10;84.00;;;;;;5044683;28;20091;-48
2022/01/01 11:35:30;;;;;;;13.10;7.07;;;26.10;84.10;;;;;;5043994;28;20049;-44
2022/01/01 11:38:03;;;;;;;12.75;6.88;;;26.10;84.10;;;;;;5044862;28;20078;-46
2022/01/01 11:40:42;;;;;;;14.32;7.28;;;26.10;84.30;;;;;;5044823;28;20025;-50
2022/01/01 11:43:44;;;;;;;17.90;7.72;;;26.10;84.50;;;;;;5044665;28;20043;-47
2022/01/01 11:46:36;;;;;;;13.13;6.60;;;26.10;84.60;;;;;;5044574;28;20021;-52
2022/01/01 11:49:05;;;;;;;15.75;6.00;;;26.10;84.60;;;;;;5044098;28;20027;-52
2022/01/01 11:51:59;;;;;;;12.20;5.05;;;26.10;84.70;;;;;;5044580;28;20045;-49
2022/01/01 11:54:38;;;;;;;14.45;5.10;;;26.10;84.80;;;;;;5041912;28;20037;-50
2022/01/01 11:57:25;;;;;;;11.18;5.13;;;26.10;84.90;;;;;;5044218;28;20056;-46
2022/01/01 12:00:00;;;;;;;10.70;4.47;;;26.00;84.90;;;;;;5044263;28;20033;-47
2022/01/01 12:02:28;;;;;;;11.05;4.72;;;26.10;85.20;;;;;;5043896;28;20029;-52
2022/01/01 12:05:06;;;;;;;12.48;5.00;;;26.10;85.10;;;;;;5044556;28;20037;-51
2022/01/01 12:07:43;;;;;;;8.55;4.35;;;26.20;85.00;;;;;;5044185;28;20389;-47
2022/01/01 12:10:11;;;;;;;12.70;4.40;;;26.20;84.90;;;;;;5044581;28;20029;-52
2022/01/01 12:12:52;;;;;;;11.45;4.40;;;26.20;84.80;;;;;;5044032;28;20028;-45
2022/01/01 12:15:25;;;;;;;10.48;4.35;;;26.20;84.70;;;;;;5043880;28;20071;-50
2022/01/01 12:18:05;;;;;;;12.02;4.05;;;26.20;84.60;;;;;;5043875;28;20021;-44
2022/01/01 12:20:41;;;;;;;10.77;4.35;;;26.20;84.60;;;;;;5043298;28;20033;-45
2022/01/01 12:23:11;;;;;;;10.18;3.72;;;26.20;84.60;;;;;;5043960;28;20023;-50
2022/01/01 12:25:41;;;;;;;8.90;3.65;;;26.30;84.60;;;;;;5043736;28;20032;-48
2022/01/01 12:28:12;;;;;;;7.93;3.95;;;26.30;85.00;;;;;;5043944;28;20037;-47
2022/01/01 12:30:50;;;;;;;7.23;3.87;;;26.30;84.50;;;;;;5043828;28;20091;-48
2022/01/01 12:33:27;;;;;;;7.78;3.70;;;26.30;84.50;;;;;;5043777;28;20519;-44
2022/01/01 12:35:56;;;;;;;7.50;4.03;;;26.30;84.50;;;;;;5043801;28;20049;-46
2022/01/01 12:38:24;;;;;;;7.88;3.80;;;26.30;84.40;;;;;;5043769;28;20029;-56
2022/01/01 12:41:08;;;;;;;7.50;3.88;;;26.30;84.30;;;;;;5043728;28;20017;-43
2022/01/01 12:43:47;;;;;;;7.05;4.00;;;26.30;84.40;;;;;;5043633;28;20126;-51
2022/01/01 12:46:19;;;;;;;9.35;4.03;;;26.40;84.40;;;;;;5043615;28;20030;-49
2022/01/01 12:48:46;;;;;;;7.97;3.97;;;26.40;84.30;;;;;;5043768;28;20018;-44
2022/01/01 12:51:15;;;;;;;6.25;3.47;;;26.40;84.30;;;;;;5043694;28;20318;-47
2022/01/01 12:53:42;;;;;;;8.73;3.50;;;26.40;84.30;;;;;;5043838;28;20038;-52